LFMU/BZR METAR and TAF weather

Enter ICAO airport designator
Station Type Date Time Source
LFMU METAR 2020/11/27 14:00 UTC NOAA

LFMU 271400Z AUTO 06009KT 9999 3800 BKN020/// BKN028/// OVC035/// ///TCU 13/12 Q1015 TEMPO 3000 RA BR BKN012 SCT020TCU


Station Type Date Time Source
LFMU Decoded METAR 2020/11/27 14:00 UTC NOAA

Beziers / Vias, France (LFMU) 43-19N 003-21E
Nov 27, 2020 - 09:00 AM EST / 2020.11.27 1400 UTC
Wind: from the ENE (060 degrees) at 10 MPH (9 KT):0
Visibility: greater than 7 mile(s):0
Sky conditions: overcast
Weather: Towering cumulus clouds observed
Temperature: 55 F (13 C)
Dew Point: 53 F (12 C)
Relative Humidity: 93%
Pressure (altimeter): 29.97 in. Hg (1015 hPa)
ob: LFMU 271400Z AUTO 06009KT 9999 3800 BKN020/// BKN028/// OVC035/// ///TCU 13/12 Q1015 TEMPO 3000 RA BR BKN012 SCT020TCU
cycle: 14

Station Type Date Time Source
LFMU TAF 2020/11/27 13:43 UTC NOAA

TAF
AMD LFMU 271337Z 2713/2809 06012KT 9999 SCT015 BKN025 BKN040
TEMPO 2713/2716 3000 RA BR BKN012 SCT020TCU
TEMPO 2723/2809 RA SCT012TCU BKN020

Example: see airport list